sensor_id;sensor_type;location;lat;lon;timestamp;pressure;altitude;pressure_sealevel;temperature;humidity
6500;BME280;3283;52.330;9.772;2022-08-11T00:01:24;101652.13;;;18.71;86.99
6500;BME280;3283;52.330;9.772;2022-08-11T00:03:59;101647.78;;;18.66;86.72
6500;BME280;3283;52.330;9.772;2022-08-11T00:06:31;101649.47;;;18.71;86.50
6500;BME280;3283;52.330;9.772;2022-08-11T00:08:57;101646.84;;;18.69;85.88
6500;BME280;3283;52.330;9.772;2022-08-11T00:14:04;101655.03;;;18.61;86.69
6500;BME280;3283;52.330;9.772;2022-08-11T00:16:37;101654.19;;;18.59;86.30
6500;BME280;3283;52.330;9.772;2022-08-11T00:19:03;101650.66;;;18.59;86.28
6500;BME280;3283;52.330;9.772;2022-08-11T00:21:29;101640.16;;;18.54;85.06
6500;BME280;3283;52.330;9.772;2022-08-11T00:23:59;101644.44;;;18.58;86.42
6500;BME280;3283;52.330;9.772;2022-08-11T00:26:26;101645.38;;;18.57;87.13
6500;BME280;3283;52.330;9.772;2022-08-11T00:28:53;101642.81;;;18.54;87.50
6500;BME280;3283;52.330;9.772;2022-08-11T00:31:23;101644.63;;;18.52;87.93
6500;BME280;3283;52.330;9.772;2022-08-11T00:33:50;101648.97;;;18.56;88.03
6500;BME280;3283;52.330;9.772;2022-08-11T00:36:19;101649.88;;;18.55;88.24
6500;BME280;3283;52.330;9.772;2022-08-11T00:38:50;101649.38;;;18.43;90.02
6500;BME280;3283;52.330;9.772;2022-08-11T00:41:46;101649.25;;;18.46;89.79
6500;BME280;3283;52.330;9.772;2022-08-11T00:44:30;101655.69;;;18.38;88.76
6500;BME280;3283;52.330;9.772;2022-08-11T00:50:22;101644.03;;;18.43;87.36
6500;BME280;3283;52.330;9.772;2022-08-11T01:10:15;101647.78;;;18.35;76.34
6500;BME280;3283;52.330;9.772;2022-08-11T01:12:48;101652.31;;;18.32;76.87
6500;BME280;3283;52.330;9.772;2022-08-11T01:19:15;101661.25;;;18.31;75.63
6500;BME280;3283;52.330;9.772;2022-08-11T01:32:37;101656.94;;;18.27;75.90
6500;BME280;3283;52.330;9.772;2022-08-11T01:35:34;101653.13;;;18.35;75.25
6500;BME280;3283;52.330;9.772;2022-08-11T01:44:14;101653.78;;;18.11;77.04
6500;BME280;3283;52.330;9.772;2022-08-11T01:50:19;101654.97;;;18.01;77.50
6500;BME280;3283;52.330;9.772;2022-08-11T01:53:09;101656.88;;;17.97;77.34
6500;BME280;3283;52.330;9.772;2022-08-11T02:00:55;101657.91;;;17.92;78.20
6500;BME280;3283;52.330;9.772;2022-08-11T02:03:35;101651.84;;;17.85;78.72
6500;BME280;3283;52.330;9.772;2022-08-11T02:06:09;101652.69;;;17.87;78.58
6500;BME280;3283;52.330;9.772;2022-08-11T02:11:32;101650.13;;;17.84;78.98
6500;BME280;3283;52.330;9.772;2022-08-11T02:14:28;101648.53;;;17.75;79.15
6500;BME280;3283;52.330;9.772;2022-08-11T02:19:41;101649.41;;;17.76;78.91
6500;BME280;3283;52.330;9.772;2022-08-11T02:22:45;101648.53;;;17.75;78.76
6500;BME280;3283;52.330;9.772;2022-08-11T02:25:38;101639.78;;;17.72;78.90
6500;BME280;3283;52.330;9.772;2022-08-11T02:33:47;101646.16;;;17.65;79.33
6500;BME280;3283;52.330;9.772;2022-08-11T02:36:24;101654.19;;;17.62;79.91
6500;BME280;3283;52.330;9.772;2022-08-11T02:39:11;101650.78;;;17.56;80.99
6500;BME280;3283;52.330;9.772;2022-08-11T02:50:20;101652.19;;;17.36;82.87
6500;BME280;3283;52.330;9.772;2022-08-11T02:55:42;101643.09;;;17.09;84.44
6500;BME280;3283;52.330;9.772;2022-08-11T03:01:41;101655.66;;;17.02;84.98
6500;BME280;3283;52.330;9.772;2022-08-11T03:04:14;101661.25;;;16.90;85.60
6500;BME280;3283;52.330;9.772;2022-08-11T03:07:00;101655.28;;;16.80;86.56
6500;BME280;3283;52.330;9.772;2022-08-11T03:12:12;101655.56;;;16.65;87.39
6500;BME280;3283;52.330;9.772;2022-08-11T03:15:11;101653.81;;;16.64;87.68
6500;BME280;3283;52.330;9.772;2022-08-11T03:20:52;101649.47;;;16.60;88.10
6500;BME280;3283;52.330;9.772;2022-08-11T03:23:36;101657.53;;;16.57;88.30
6500;BME280;3283;52.330;9.772;2022-08-11T03:26:14;101656.66;;;16.55;88.79
6500;BME280;3283;52.330;9.772;2022-08-11T03:34:37;101650.59;;;16.48;89.37
6500;BME280;3283;52.330;9.772;2022-08-11T03:46:09;101663.44;;;16.26;91.61
6500;BME280;3283;52.330;9.772;2022-08-11T03:48:46;101657.41;;;16.18;92.85
6500;BME280;3283;52.330;9.772;2022-08-11T03:51:21;101653.09;;;16.14;93.27
6500;BME280;3283;52.330;9.772;2022-08-11T04:16:28;101655.19;;;15.95;100.00
6500;BME280;3283;52.330;9.772;2022-08-11T04:19:37;101655.28;;;15.90;100.00
6500;BME280;3283;52.330;9.772;2022-08-11T04:22:21;101649.94;;;15.93;100.00
6500;BME280;3283;52.330;9.772;2022-08-11T04:34:30;101649.59;;;16.10;100.00
6500;BME280;3283;52.330;9.772;2022-08-11T04:42:39;101646.72;;;16.23;100.00
6500;BME280;3283;52.330;9.772;2022-08-11T04:54:52;101663.88;;;16.48;100.00
6500;BME280;3283;52.330;9.772;2022-08-11T04:57:20;101660.19;;;16.57;100.00
6500;BME280;3283;52.330;9.772;2022-08-11T05:00:06;101666.22;;;16.65;100.00
6500;BME280;3283;52.330;9.772;2022-08-11T05:14:51;101654.38;;;17.18;100.00
6500;BME280;3283;52.330;9.772;2022-08-11T05:17:43;101652.31;;;17.31;98.81
6500;BME280;3283;52.330;9.772;2022-08-11T05:20:28;101660.00;;;17.43;96.29
6500;BME280;3283;52.330;9.772;2022-08-11T05:23:14;101655.16;;;17.59;95.20
6500;BME280;3283;52.330;9.772;2022-08-11T05:26:00;101652.22;;;17.70;94.20
6500;BME280;3283;52.330;9.772;2022-08-11T05:28:52;101657.28;;;17.80;93.22
6500;BME280;3283;52.330;9.772;2022-08-11T05:31:40;101659.53;;;17.96;92.06
6500;BME280;3283;52.330;9.772;2022-08-11T05:34:47;101660.03;;;18.10;91.12
6500;BME280;3283;52.330;9.772;2022-08-11T05:39:52;101665.97;;;18.21;88.39
6500;BME280;3283;52.330;9.772;2022-08-11T05:42:42;101656.72;;;18.34;86.61
6500;BME280;3283;52.330;9.772;2022-08-11T05:45:33;101668.78;;;18.46;86.21
6500;BME280;3283;52.330;9.772;2022-08-11T05:48:17;101658.69;;;18.57;84.67
6500;BME280;3283;52.330;9.772;2022-08-11T05:51:02;101667.31;;;18.69;83.75
6500;BME280;3283;52.330;9.772;2022-08-11T05:53:55;101649.22;;;18.78;81.71
6500;BME280;3283;52.330;9.772;2022-08-11T05:56:50;101656.69;;;18.95;82.27
6500;BME280;3283;52.330;9.772;2022-08-11T05:59:18;101656.31;;;19.07;80.68
6500;BME280;3283;52.330;9.772;2022-08-11T06:01:45;101657.78;;;19.17;78.60
6500;BME280;3283;52.330;9.772;2022-08-11T06:04:20;101658.09;;;19.35;76.27
6500;BME280;3283;52.330;9.772;2022-08-11T06:09:47;101664.03;;;19.71;76.62
6500;BME280;3283;52.330;9.772;2022-08-11T06:12:26;101662.81;;;19.81;75.14
6500;BME280;3283;52.330;9.772;2022-08-11T06:14:54;101661.41;;;19.96;73.79
6500;BME280;3283;52.330;9.772;2022-08-11T06:17:26;101661.94;;;20.06;73.26
6500;BME280;3283;52.330;9.772;2022-08-11T06:19:58;101665.97;;;20.17;71.76
6500;BME280;3283;52.330;9.772;2022-08-11T06:22:25;101656.59;;;20.30;71.64
6500;BME280;3283;52.330;9.772;2022-08-11T06:25:02;101654.19;;;20.48;70.05
6500;BME280;3283;52.330;9.772;2022-08-11T06:27:31;101654.66;;;20.59;69.46
6500;BME280;3283;52.330;9.772;2022-08-11T06:29:58;101655.88;;;20.74;70.37
6500;BME280;3283;52.330;9.772;2022-08-11T06:32:30;101639.75;;;20.75;70.94
6500;BME280;3283;52.330;9.772;2022-08-11T06:35:21;101655.09;;;20.94;70.03
6500;BME280;3283;52.330;9.772;2022-08-11T06:41:03;101653.22;;;21.18;70.30
6500;BME280;3283;52.330;9.772;2022-08-11T06:46:42;101654.91;;;21.42;70.82
6500;BME280;3283;52.330;9.772;2022-08-11T06:49:10;101646.44;;;21.53;69.17
6500;BME280;3283;52.330;9.772;2022-08-11T06:51:58;101656.78;;;21.62;69.08
6500;BME280;3283;52.330;9.772;2022-08-11T06:54:28;101655.25;;;21.77;67.86
6500;BME280;3283;52.330;9.772;2022-08-11T06:56:55;101656.34;;;21.73;65.76
6500;BME280;3283;52.330;9.772;2022-08-11T06:59:40;101655.25;;;21.77;65.86
6500;BME280;3283;52.330;9.772;2022-08-11T07:02:36;101651.84;;;21.93;65.09
6500;BME280;3283;52.330;9.772;2022-08-11T07:14:01;101661.38;;;22.41;63.26
6500;BME280;3283;52.330;9.772;2022-08-11T07:16:48;101662.75;;;22.69;62.76
6500;BME280;3283;52.330;9.772;2022-08-11T07:19:19;101658.41;;;22.85;61.95
6500;BME280;3283;52.330;9.772;2022-08-11T07:22:06;101661.28;;;22.62;62.66
6500;BME280;3283;52.330;9.772;2022-08-11T07:24:57;101662.09;;;22.64;63.03
6500;BME280;3283;52.330;9.772;2022-08-11T07:27:47;101659.59;;;22.98;61.86
6500;BME280;3283;52.330;9.772;2022-08-11T07:30:36;101653.31;;;23.53;61.37
6500;BME280;3283;52.330;9.772;2022-08-11T07:33:04;101658.19;;;23.64;61.02
6500;BME280;3283;52.330;9.772;2022-08-11T07:35:34;101658.16;;;23.81;60.58
6500;BME280;3283;52.330;9.772;2022-08-11T07:38:05;101660.09;;;23.62;61.05
6500;BME280;3283;52.330;9.772;2022-08-11T07:40:35;101647.88;;;23.89;60.44
6500;BME280;3283;52.330;9.772;2022-08-11T07:43:02;101650.75;;;24.03;60.19
6500;BME280;3283;52.330;9.772;2022-08-11T07:45:28;101650.88;;;24.35;59.47
6500;BME280;3283;52.330;9.772;2022-08-11T07:48:14;101650.19;;;24.30;59.95
6500;BME280;3283;52.330;9.772;2022-08-11T07:51:00;101654.75;;;24.62;59.38
6500;BME280;3283;52.330;9.772;2022-08-11T07:53:45;101653.16;;;24.58;59.09
6500;BME280;3283;52.330;9.772;2022-08-11T07:56:11;101652.75;;;24.16;59.17
6500;BME280;3283;52.330;9.772;2022-08-11T07:58:40;101664.34;;;24.00;60.10
6500;BME280;3283;52.330;9.772;2022-08-11T08:01:26;101655.94;;;24.06;60.13
6500;BME280;3283;52.330;9.772;2022-08-11T08:04:14;101655.94;;;24.57;59.48
6500;BME280;3283;52.330;9.772;2022-08-11T08:07:00;101656.16;;;25.01;58.10
6500;BME280;3283;52.330;9.772;2022-08-11T08:09:47;101656.00;;;25.20;58.03
6500;BME280;3283;52.330;9.772;2022-08-11T08:12:33;101657.28;;;25.29;58.30
6500;BME280;3283;52.330;9.772;2022-08-11T08:15:19;101656.38;;;25.60;57.92
6500;BME280;3283;52.330;9.772;2022-08-11T08:18:05;101656.56;;;25.72;57.47
6500;BME280;3283;52.330;9.772;2022-08-11T08:20:37;101661.59;;;25.93;57.12
6500;BME280;3283;52.330;9.772;2022-08-11T08:23:03;101652.38;;;26.11;56.40
6500;BME280;3283;52.330;9.772;2022-08-11T08:25:32;101661.91;;;26.02;55.97
6500;BME280;3283;52.330;9.772;2022-08-11T08:28:00;101653.09;;;25.85;56.38
6500;BME280;3283;52.330;9.772;2022-08-11T08:30:27;101647.59;;;25.56;57.28
6500;BME280;3283;52.330;9.772;2022-08-11T08:33:13;101651.16;;;25.72;56.68
6500;BME280;3283;52.330;9.772;2022-08-11T08:35:40;101656.63;;;26.01;56.59
6500;BME280;3283;52.330;9.772;2022-08-11T08:38:06;101651.19;;;25.87;56.02
6500;BME280;3283;52.330;9.772;2022-08-11T08:40:33;101643.97;;;25.87;55.53
6500;BME280;3283;52.330;9.772;2022-08-11T08:43:03;101644.69;;;26.19;54.81
6500;BME280;3283;52.330;9.772;2022-08-11T08:45:33;101659.75;;;26.52;53.98
6500;BME280;3283;52.330;9.772;2022-08-11T08:48:02;101643.22;;;26.71;54.55
6500;BME280;3283;52.330;9.772;2022-08-11T08:50:36;101638.16;;;26.52;54.71
6500;BME280;3283;52.330;9.772;2022-08-11T08:53:23;101641.13;;;26.76;54.37
6500;BME280;3283;52.330;9.772;2022-08-11T08:55:54;101644.69;;;26.62;55.11
6500;BME280;3283;52.330;9.772;2022-08-11T08:58:23;101643.72;;;26.77;54.65
6500;BME280;3283;52.330;9.772;2022-08-11T09:00:52;101641.13;;;26.62;53.73
6500;BME280;3283;52.330;9.772;2022-08-11T09:03:19;101636.06;;;26.57;53.58
6500;BME280;3283;52.330;9.772;2022-08-11T09:05:46;101629.66;;;26.72;53.65
6500;BME280;3283;52.330;9.772;2022-08-11T09:08:13;101632.19;;;27.02;53.24
6500;BME280;3283;52.330;9.772;2022-08-11T09:10:39;101625.44;;;27.36;52.22
6500;BME280;3283;52.330;9.772;2022-08-11T09:13:05;101620.53;;;27.56;50.29
6500;BME280;3283;52.330;9.772;2022-08-11T09:15:33;101619.56;;;27.30;50.91
6500;BME280;3283;52.330;9.772;2022-08-11T09:18:01;101619.63;;;27.55;49.84
6500;BME280;3283;52.330;9.772;2022-08-11T09:20:35;101615.22;;;27.67;50.45
6500;BME280;3283;52.330;9.772;2022-08-11T09:23:06;101622.09;;;28.11;49.68
6500;BME280;3283;52.330;9.772;2022-08-11T09:25:55;101615.72;;;28.25;49.20
6500;BME280;3283;52.330;9.772;2022-08-11T09:28:42;101613.56;;;28.17;49.42
6500;BME280;3283;52.330;9.772;2022-08-11T09:31:09;101609.44;;;28.24;49.84
6500;BME280;3283;52.330;9.772;2022-08-11T09:33:36;101613.47;;;28.06;46.93
6500;BME280;3283;52.330;9.772;2022-08-11T09:36:03;101606.19;;;28.44;45.45
6500;BME280;3283;52.330;9.772;2022-08-11T09:38:50;101590.06;;;28.17;46.33
6500;BME280;3283;52.330;9.772;2022-08-11T09:41:35;101606.09;;;28.08;45.74
6500;BME280;3283;52.330;9.772;2022-08-11T09:44:02;101608.81;;;28.33;46.41
6500;BME280;3283;52.330;9.772;2022-08-11T09:46:47;101598.50;;;28.75;46.57
6500;BME280;3283;52.330;9.772;2022-08-11T09:49:14;101602.66;;;28.68;47.18
6500;BME280;3283;52.330;9.772;2022-08-11T09:51:40;101606.72;;;28.62;45.93
6500;BME280;3283;52.330;9.772;2022-08-11T09:54:06;101593.19;;;28.86;45.59
6500;BME280;3283;52.330;9.772;2022-08-11T09:56:32;101592.31;;;28.49;45.21
6500;BME280;3283;52.330;9.772;2022-08-11T09:59:19;101598.31;;;28.41;44.96
6500;BME280;3283;52.330;9.772;2022-08-11T10:01:47;101586.25;;;28.82;44.40
6500;BME280;3283;52.330;9.772;2022-08-11T10:04:21;101584.53;;;29.18;44.42
6500;BME280;3283;52.330;9.772;2022-08-11T10:06:52;101589.44;;;29.24;43.99
6500;BME280;3283;52.330;9.772;2022-08-11T10:09:51;101578.91;;;29.32;42.54
6500;BME280;3283;52.330;9.772;2022-08-11T10:12:25;101576.78;;;29.00;44.11
6500;BME280;3283;52.330;9.772;2022-08-11T10:14:55;101574.47;;;29.07;44.31
6500;BME280;3283;52.330;9.772;2022-08-11T10:17:43;101573.84;;;29.39;43.48
6500;BME280;3283;52.330;9.772;2022-08-11T10:20:34;101571.31;;;29.13;44.16
6500;BME280;3283;52.330;9.772;2022-08-11T10:23:01;101565.03;;;29.48;44.75
6500;BME280;3283;52.330;9.772;2022-08-11T10:25:55;101546.84;;;29.61;43.60
6500;BME280;3283;52.330;9.772;2022-08-11T10:28:40;101561.06;;;29.41;43.36
6500;BME280;3283;52.330;9.772;2022-08-11T10:31:05;101550.94;;;28.84;43.87
6500;BME280;3283;52.330;9.772;2022-08-11T10:33:50;101554.13;;;29.02;43.69
6500;BME280;3283;52.330;9.772;2022-08-11T10:36:27;101544.50;;;29.68;43.25
6500;BME280;3283;52.330;9.772;2022-08-11T10:38:54;101542.78;;;29.78;43.14
6500;BME280;3283;52.330;9.772;2022-08-11T10:41:20;101542.28;;;29.95;42.92
6500;BME280;3283;52.330;9.772;2022-08-11T10:44:06;101535.41;;;30.02;42.71
6500;BME280;3283;52.330;9.772;2022-08-11T10:46:34;101533.66;;;29.79;42.92
6500;BME280;3283;52.330;9.772;2022-08-11T10:49:19;101530.84;;;29.45;43.26
6500;BME280;3283;52.330;9.772;2022-08-11T10:51:45;101531.69;;;28.99;43.25
6500;BME280;3283;52.330;9.772;2022-08-11T10:54:32;101528.53;;;29.17;43.32
6500;BME280;3283;52.330;9.772;2022-08-11T10:57:16;101528.59;;;29.63;42.65
6500;BME280;3283;52.330;9.772;2022-08-11T11:00:01;101532.97;;;30.11;41.91
6500;BME280;3283;52.330;9.772;2022-08-11T11:02:27;101523.09;;;30.10;41.26
6500;BME280;3283;52.330;9.772;2022-08-11T11:07:39;101532.19;;;29.75;41.84
6500;BME280;3283;52.330;9.772;2022-08-11T11:10:09;101528.38;;;30.22;41.12
6500;BME280;3283;52.330;9.772;2022-08-11T11:12:41;101516.53;;;30.34;41.67
6500;BME280;3283;52.330;9.772;2022-08-11T11:15:29;101524.06;;;30.31;41.73
6500;BME280;3283;52.330;9.772;2022-08-11T11:18:31;101514.38;;;30.60;41.92
6500;BME280;3283;52.330;9.772;2022-08-11T11:21:08;101509.97;;;30.48;41.66
6500;BME280;3283;52.330;9.772;2022-08-11T11:29:06;101507.63;;;29.99;41.60
6500;BME280;3283;52.330;9.772;2022-08-11T11:34:29;101503.91;;;30.67;41.04
6500;BME280;3283;52.330;9.772;2022-08-11T11:37:00;101502.63;;;30.71;40.42
6500;BME280;3283;52.330;9.772;2022-08-11T11:39:28;101503.31;;;30.41;40.98
6500;BME280;3283;52.330;9.772;2022-08-11T11:41:57;101500.25;;;30.78;40.68
6500;BME280;3283;52.330;9.772;2022-08-11T11:44:24;101501.00;;;30.25;41.01
6500;BME280;3283;52.330;9.772;2022-08-11T11:46:51;101493.81;;;30.35;41.92
6500;BME280;3283;52.330;9.772;2022-08-11T11:49:19;101503.81;;;30.35;42.24
6500;BME280;3283;52.330;9.772;2022-08-11T11:51:48;101498.69;;;30.75;41.49
6500;BME280;3283;52.330;9.772;2022-08-11T11:54:20;101496.09;;;30.62;41.42
6500;BME280;3283;52.330;9.772;2022-08-11T11:56:46;101487.72;;;30.43;40.95
6500;BME280;3283;52.330;9.772;2022-08-11T11:59:13;101496.28;;;30.27;41.43
6500;BME280;3283;52.330;9.772;2022-08-11T12:01:58;101491.44;;;30.42;42.15
6500;BME280;3283;52.330;9.772;2022-08-11T12:04:25;101484.19;;;30.31;41.09
6500;BME280;3283;52.330;9.772;2022-08-11T12:06:52;101487.78;;;30.32;41.33
6500;BME280;3283;52.330;9.772;2022-08-11T12:09:38;101477.22;;;30.50;41.30
6500;BME280;3283;52.330;9.772;2022-08-11T12:12:05;101481.31;;;30.44;41.49
6500;BME280;3283;52.330;9.772;2022-08-11T12:14:50;101480.63;;;30.63;40.76
6500;BME280;3283;52.330;9.772;2022-08-11T12:17:17;101473.13;;;30.55;40.92
6500;BME280;3283;52.330;9.772;2022-08-11T12:19:42;101480.94;;;30.49;41.58
6500;BME280;3283;52.330;9.772;2022-08-11T12:22:08;101453.84;;;30.70;40.16
6500;BME280;3283;52.330;9.772;2022-08-11T12:24:53;101445.91;;;30.78;40.54
6500;BME280;3283;52.330;9.772;2022-08-11T12:27:45;101457.00;;;30.43;40.13
6500;BME280;3283;52.330;9.772;2022-08-11T12:30:11;101462.19;;;30.34;40.18
6500;BME280;3283;52.330;9.772;2022-08-11T12:32:38;101454.78;;;30.36;39.62
6500;BME280;3283;52.330;9.772;2022-08-11T12:35:05;101453.47;;;30.31;40.14
6500;BME280;3283;52.330;9.772;2022-08-11T12:37:38;101458.00;;;30.08;40.97
6500;BME280;3283;52.330;9.772;2022-08-11T12:40:08;101436.28;;;30.30;40.58
6500;BME280;3283;52.330;9.772;2022-08-11T12:43:00;101435.16;;;30.65;40.25
6500;BME280;3283;52.330;9.772;2022-08-11T12:45:46;101427.53;;;30.70;40.97
6500;BME280;3283;52.330;9.772;2022-08-11T12:48:17;101428.25;;;30.72;41.09
6500;BME280;3283;52.330;9.772;2022-08-11T12:51:06;101435.47;;;30.51;40.58
6500;BME280;3283;52.330;9.772;2022-08-11T12:54:12;101419.75;;;30.33;40.55
6500;BME280;3283;52.330;9.772;2022-08-11T12:56:43;101419.13;;;30.30;40.34
6500;BME280;3283;52.330;9.772;2022-08-11T12:59:28;101411.50;;;30.01;40.95
6500;BME280;3283;52.330;9.772;2022-08-11T13:02:15;101415.06;;;30.02;40.20
6500;BME280;3283;52.330;9.772;2022-08-11T13:05:02;101420.75;;;30.21;39.64
6500;BME280;3283;52.330;9.772;2022-08-11T13:07:29;101410.97;;;30.30;39.45
6500;BME280;3283;52.330;9.772;2022-08-11T13:09:57;101406.94;;;30.24;39.84
6500;BME280;3283;52.330;9.772;2022-08-11T13:12:24;101410.28;;;30.17;39.76
6500;BME280;3283;52.330;9.772;2022-08-11T13:15:14;101413.94;;;30.27;39.67
6500;BME280;3283;52.330;9.772;2022-08-11T13:17:41;101412.00;;;30.06;40.01
6500;BME280;3283;52.330;9.772;2022-08-11T13:20:11;101400.75;;;30.22;39.94
6500;BME280;3283;52.330;9.772;2022-08-11T13:22:40;101402.28;;;30.47;39.82
6500;BME280;3283;52.330;9.772;2022-08-11T13:25:10;101402.22;;;30.58;39.93
6500;BME280;3283;52.330;9.772;2022-08-11T13:27:35;101400.63;;;30.56;39.73
6500;BME280;3283;52.330;9.772;2022-08-11T13:30:02;101398.28;;;30.51;39.52
6500;BME280;3283;52.330;9.772;2022-08-11T13:32:46;101388.81;;;30.14;39.53
6500;BME280;3283;52.330;9.772;2022-08-11T13:35:13;101384.78;;;30.40;39.42
6500;BME280;3283;52.330;9.772;2022-08-11T13:37:45;101384.63;;;30.42;39.09
6500;BME280;3283;52.330;9.772;2022-08-11T13:40:13;101389.00;;;30.33;39.90
6500;BME280;3283;52.330;9.772;2022-08-11T13:42:40;101382.16;;;30.18;40.30
6500;BME280;3283;52.330;9.772;2022-08-11T13:45:08;101379.72;;;30.35;39.84
6500;BME280;3283;52.330;9.772;2022-08-11T13:47:35;101379.72;;;30.35;39.74
6500;BME280;3283;52.330;9.772;2022-08-11T13:50:02;101382.47;;;30.56;39.81
6500;BME280;3283;52.330;9.772;2022-08-11T13:52:28;101385.84;;;30.17;39.88
6500;BME280;3283;52.330;9.772;2022-08-11T13:54:55;101382.13;;;30.50;39.27
6500;BME280;3283;52.330;9.772;2022-08-11T13:57:21;101381.28;;;30.49;38.61
6500;BME280;3283;52.330;9.772;2022-08-11T13:59:52;101355.69;;;30.31;38.92
6500;BME280;3283;52.330;9.772;2022-08-11T14:02:23;101374.81;;;30.29;38.99
6500;BME280;3283;52.330;9.772;2022-08-11T14:05:02;101375.78;;;30.28;39.12
6500;BME280;3283;52.330;9.772;2022-08-11T14:07:45;101369.50;;;30.28;39.05
6500;BME280;3283;52.330;9.772;2022-08-11T14:10:13;101368.69;;;30.48;38.53
6500;BME280;3283;52.330;9.772;2022-08-11T14:12:42;101373.94;;;30.29;37.60
6500;BME280;3283;52.330;9.772;2022-08-11T14:15:33;101366.56;;;30.31;37.80
6500;BME280;3283;52.330;9.772;2022-08-11T14:20:31;101373.91;;;30.40;37.72
6500;BME280;3283;52.330;9.772;2022-08-11T14:23:34;101363.88;;;30.52;38.15
6500;BME280;3283;52.330;9.772;2022-08-11T14:26:01;101360.66;;;30.47;37.51
6500;BME280;3283;52.330;9.772;2022-08-11T14:28:46;101354.06;;;30.28;37.57
6500;BME280;3283;52.330;9.772;2022-08-11T14:31:14;101353.69;;;30.33;37.75
6500;BME280;3283;52.330;9.772;2022-08-11T14:33:41;101345.53;;;30.33;37.65
6500;BME280;3283;52.330;9.772;2022-08-11T14:36:09;101346.75;;;30.40;37.68
6500;BME280;3283;52.330;9.772;2022-08-11T14:38:35;101349.16;;;30.54;38.31
6500;BME280;3283;52.330;9.772;2022-08-11T14:41:03;101346.50;;;30.64;38.32
6500;BME280;3283;52.330;9.772;2022-08-11T14:43:47;101336.84;;;30.71;38.10
6500;BME280;3283;52.330;9.772;2022-08-11T14:46:33;101342.97;;;31.15;37.36
6500;BME280;3283;52.330;9.772;2022-08-11T14:49:18;101349.97;;;32.48;36.23
6500;BME280;3283;52.330;9.772;2022-08-11T14:51:46;101337.44;;;33.68;34.88
6500;BME280;3283;52.330;9.772;2022-08-11T14:54:13;101339.59;;;34.99;34.66
6500;BME280;3283;52.330;9.772;2022-08-11T14:56:58;101333.59;;;35.98;32.32
6500;BME280;3283;52.330;9.772;2022-08-11T14:59:25;101330.25;;;36.53;31.85
6500;BME280;3283;52.330;9.772;2022-08-11T15:01:51;101333.25;;;37.15;31.66
6500;BME280;3283;52.330;9.772;2022-08-11T15:04:35;101335.00;;;37.00;32.39
6500;BME280;3283;52.330;9.772;2022-08-11T15:07:01;101327.63;;;36.27;32.31
6500;BME280;3283;52.330;9.772;2022-08-11T15:09:26;101324.59;;;36.46;32.15
6500;BME280;3283;52.330;9.772;2022-08-11T15:11:52;101331.25;;;36.44;32.45
6500;BME280;3283;52.330;9.772;2022-08-11T15:14:34;101315.19;;;37.29;31.57
6500;BME280;3283;52.330;9.772;2022-08-11T15:17:18;101310.75;;;38.21;32.44
6500;BME280;3283;52.330;9.772;2022-08-11T15:19:45;101318.97;;;39.49;30.48
6500;BME280;3283;52.330;9.772;2022-08-11T15:22:30;101310.72;;;40.21;29.75
6500;BME280;3283;52.330;9.772;2022-08-11T15:25:14;101307.22;;;40.55;29.64
6500;BME280;3283;52.330;9.772;2022-08-11T15:27:41;101304.91;;;40.16;30.41
6500;BME280;3283;52.330;9.772;2022-08-11T15:30:27;101308.66;;;41.07;29.41
6500;BME280;3283;52.330;9.772;2022-08-11T15:33:14;101299.91;;;41.32;29.38
6500;BME280;3283;52.330;9.772;2022-08-11T15:36:04;101284.81;;;41.34;29.06
6500;BME280;3283;52.330;9.772;2022-08-11T15:39:08;101289.13;;;41.50;28.56
6500;BME280;3283;52.330;9.772;2022-08-11T15:41:45;101289.63;;;41.67;28.95
6500;BME280;3283;52.330;9.772;2022-08-11T15:44:32;101289.78;;;42.46;28.23
6500;BME280;3283;52.330;9.772;2022-08-11T15:47:21;101284.31;;;41.17;29.15
6500;BME280;3283;52.330;9.772;2022-08-11T15:49:52;101287.47;;;40.86;29.14
6500;BME280;3283;52.330;9.772;2022-08-11T15:52:21;101283.28;;;40.91;29.63
6500;BME280;3283;52.330;9.772;2022-08-11T15:54:50;101283.19;;;41.12;28.89
6500;BME280;3283;52.330;9.772;2022-08-11T15:57:17;101281.13;;;41.68;28.65
6500;BME280;3283;52.330;9.772;2022-08-11T16:00:05;101281.88;;;41.42;29.05
6500;BME280;3283;52.330;9.772;2022-08-11T16:02:50;101268.44;;;41.81;28.72
6500;BME280;3283;52.330;9.772;2022-08-11T16:05:20;101276.16;;;41.03;29.23
6500;BME280;3283;52.330;9.772;2022-08-11T16:07:46;101266.84;;;41.10;29.29
6500;BME280;3283;52.330;9.772;2022-08-11T16:10:18;101262.97;;;41.46;28.84
6500;BME280;3283;52.330;9.772;2022-08-11T16:12:55;101268.94;;;40.03;29.42
6500;BME280;3283;52.330;9.772;2022-08-11T16:15:39;101260.03;;;39.65;29.99
6500;BME280;3283;52.330;9.772;2022-08-11T16:18:29;101265.69;;;39.42;29.47
6500;BME280;3283;52.330;9.772;2022-08-11T16:21:15;101256.75;;;39.40;29.52
6500;BME280;3283;52.330;9.772;2022-08-11T16:23:45;101256.31;;;40.36;29.34
6500;BME280;3283;52.330;9.772;2022-08-11T16:26:12;101247.34;;;41.19;29.00
6500;BME280;3283;52.330;9.772;2022-08-11T16:28:39;101254.34;;;40.86;28.61
6500;BME280;3283;52.330;9.772;2022-08-11T16:31:06;101251.78;;;41.20;28.28
6500;BME280;3283;52.330;9.772;2022-08-11T16:33:40;101244.59;;;41.86;28.39
6500;BME280;3283;52.330;9.772;2022-08-11T16:36:08;101246.41;;;41.05;28.57
6500;BME280;3283;52.330;9.772;2022-08-11T16:38:57;101246.00;;;38.41;29.98
6500;BME280;3283;52.330;9.772;2022-08-11T16:41:27;101250.53;;;39.89;29.43
6500;BME280;3283;52.330;9.772;2022-08-11T16:44:13;101237.13;;;41.19;28.79
6500;BME280;3283;52.330;9.772;2022-08-11T16:47:00;101244.69;;;38.67;30.49
6500;BME280;3283;52.330;9.772;2022-08-11T16:49:30;101249.31;;;38.52;30.37
6500;BME280;3283;52.330;9.772;2022-08-11T16:51:57;101244.16;;;37.26;31.25
6500;BME280;3283;52.330;9.772;2022-08-11T16:54:27;101240.03;;;37.30;31.23
6500;BME280;3283;52.330;9.772;2022-08-11T16:56:54;101243.50;;;37.78;31.10
6500;BME280;3283;52.330;9.772;2022-08-11T16:59:29;101232.59;;;37.70;30.69
6500;BME280;3283;52.330;9.772;2022-08-11T17:01:58;101235.16;;;37.79;31.02
6500;BME280;3283;52.330;9.772;2022-08-11T17:04:38;101237.63;;;37.89;30.84
6500;BME280;3283;52.330;9.772;2022-08-11T17:07:24;101243.41;;;36.93;31.69
6500;BME280;3283;52.330;9.772;2022-08-11T17:10:28;101241.44;;;36.62;31.75